createdAt,value
2023-02-22T06:42:43.210Z,7.37
2023-02-22T06:46:02.279Z,8.00
2023-02-22T06:49:02.207Z,6.83
2023-02-22T06:51:56.773Z,8.90
2023-02-22T06:55:09.320Z,7.63
2023-02-22T06:58:44.235Z,7.93
2023-02-22T07:02:05.640Z,8.27
2023-02-22T07:05:07.308Z,10.03
2023-02-22T07:08:24.185Z,9.83
2023-02-22T07:15:44.147Z,9.90
2023-02-22T07:18:53.613Z,9.13
2023-02-22T07:22:02.419Z,9.00
2023-02-22T07:25:03.432Z,9.60
2023-02-22T07:28:08.817Z,9.70
2023-02-22T07:31:18.488Z,9.10
2023-02-22T07:34:19.813Z,10.63
2023-02-22T07:37:46.475Z,10.83
2023-02-22T07:40:57.356Z,11.77
2023-02-22T07:44:24.368Z,11.63
2023-02-22T07:51:04.895Z,12.60
2023-02-22T07:53:59.511Z,11.50
2023-02-22T07:56:54.422Z,11.40
2023-02-22T08:00:15.708Z,11.07
2023-02-22T08:03:34.051Z,10.40
2023-02-22T08:10:07.591Z,11.20
2023-02-22T08:13:13.519Z,11.40
2023-02-22T08:16:11.413Z,8.90
2023-02-22T08:19:11.778Z,10.10
2023-02-22T08:22:49.740Z,10.18
2023-02-22T08:25:54.939Z,9.80
2023-02-22T08:32:07.074Z,9.07
2023-02-22T08:35:16.597Z,8.90
2023-02-22T08:38:50.380Z,9.13
2023-02-22T08:45:57.752Z,9.73
2023-02-22T08:49:41.970Z,8.63
2023-02-22T17:11:08.155Z,6.23
2023-02-22T17:14:02.658Z,6.90
2023-02-22T17:16:57.675Z,6.93
2023-02-22T17:19:51.938Z,7.07
2023-02-22T17:22:43.313Z,6.60
2023-02-22T17:25:38.684Z,7.70
2023-02-22T17:28:30.154Z,5.90
2023-02-22T17:31:27.972Z,6.57
2023-02-22T17:34:21.252Z,5.50
2023-02-22T17:37:16.642Z,7.93
2023-02-22T17:40:07.324Z,6.00
2023-02-22T17:42:58.677Z,5.65
2023-02-22T17:45:55.751Z,6.27
2023-02-22T17:48:53.892Z,5.63
2023-02-22T17:51:53.447Z,6.20
2023-02-22T17:54:59.715Z,6.85
2023-02-22T17:57:58.499Z,7.73
2023-02-22T18:01:00.330Z,6.87
2023-02-22T18:04:05.975Z,5.77
2023-02-22T18:07:17.565Z,6.53
2023-02-22T18:10:15.715Z,5.63
2023-02-22T18:13:11.034Z,6.17
2023-02-22T18:16:14.164Z,6.57
2023-02-22T18:19:09.782Z,6.43
2023-02-22T18:22:24.265Z,6.07
2023-02-22T18:25:17.694Z,6.97
2023-02-22T18:28:13.274Z,6.13
2023-02-22T18:31:21.101Z,5.30
2023-02-22T18:34:25.421Z,6.97
2023-02-22T18:37:24.241Z,6.10
2023-02-22T18:40:16.312Z,7.40
2023-02-22T18:43:10.175Z,6.07
2023-02-22T18:46:12.974Z,13.00
2023-02-22T18:49:16.567Z,7.10
2023-02-22T18:52:08.625Z,5.90
2023-02-22T18:55:06.119Z,7.20
2023-02-22T18:58:02.616Z,6.20
2023-02-22T19:01:05.011Z,6.43
2023-02-22T19:04:06.714Z,7.50
2023-02-22T19:07:01.035Z,6.73
2023-02-22T19:09:54.916Z,6.70
2023-02-22T19:13:24.770Z,5.97
2023-02-22T19:16:30.721Z,7.20
2023-02-22T19:19:37.809Z,7.63
2023-02-22T19:25:37.336Z,9.07
2023-02-22T19:28:46.053Z,7.17
2023-02-22T19:31:44.324Z,7.00
2023-02-22T19:34:54.621Z,8.43
2023-02-22T19:38:11.103Z,7.70
2023-02-22T19:41:27.475Z,7.53
2023-02-22T19:44:29.561Z,8.07
2023-02-22T19:47:29.088Z,7.80
2023-02-22T19:50:54.654Z,6.40
2023-02-22T19:54:02.317Z,5.83
2023-02-22T19:57:04.714Z,4.87
2023-02-22T20:00:11.808Z,6.40
2023-02-22T20:03:14.066Z,5.43
2023-02-22T20:06:09.934Z,5.03
2023-02-22T20:09:07.605Z,6.65
2023-02-22T20:12:01.059Z,6.20
2023-02-22T20:14:59.083Z,5.93
2023-02-22T20:18:22.768Z,6.30
2023-02-22T20:21:30.632Z,6.30
2023-02-22T20:24:32.631Z,6.93
2023-02-22T20:30:46.058Z,5.97
2023-02-22T20:33:48.503Z,6.93
2023-02-22T20:37:12.141Z,5.57
2023-02-22T20:40:08.959Z,6.67
2023-02-22T20:43:11.797Z,7.13
2023-02-22T20:46:08.452Z,6.70
2023-02-22T20:49:09.574Z,5.07
2023-02-22T20:52:10.218Z,6.80
2023-02-22T20:55:13.166Z,5.83
2023-02-22T20:58:16.925Z,5.37
2023-02-22T21:01:18.266Z,6.87
2023-02-22T21:04:28.438Z,6.53
2023-02-22T23:32:06.520Z,14.70
2023-02-22T23:35:34.602Z,13.83
2023-02-22T23:38:40.855Z,14.27
2023-02-22T23:42:29.040Z,12.27
2023-02-22T23:49:02.697Z,14.83
2023-02-22T23:51:55.348Z,14.40
2023-02-22T23:54:52.808Z,13.70
2023-02-22T23:57:57.145Z,15.70
